sensor_id;sensor_type;location;lat;lon;timestamp;pressure;altitude;pressure_sealevel;temperature;humidity
75418;BME280;63997;52.112;5.420;2023-07-13T00:02:18;101432.16;;;16.81;73.98
75418;BME280;63997;52.112;5.420;2023-07-13T00:04:45;101431.38;;;16.81;74.74
75418;BME280;63997;52.112;5.420;2023-07-13T00:07:11;101430.50;;;16.77;74.36
75418;BME280;63997;52.112;5.420;2023-07-13T00:09:40;101425.38;;;16.72;74.59
75418;BME280;63997;52.112;5.420;2023-07-13T00:12:32;101428.75;;;16.69;74.49
75418;BME280;63997;52.112;5.420;2023-07-13T00:15:01;101442.19;;;16.69;74.62
75418;BME280;63997;52.112;5.420;2023-07-13T00:17:29;101433.25;;;16.64;74.33
75418;BME280;63997;52.112;5.420;2023-07-13T00:19:56;101437.06;;;16.63;74.58
75418;BME280;63997;52.112;5.420;2023-07-13T00:22:23;101436.97;;;16.60;74.44
75418;BME280;63997;52.112;5.420;2023-07-13T00:24:53;101429.94;;;16.55;74.52
75418;BME280;63997;52.112;5.420;2023-07-13T00:27:22;101430.63;;;16.52;74.56
75418;BME280;63997;52.112;5.420;2023-07-13T00:29:49;101428.72;;;16.53;74.55
75418;BME280;63997;52.112;5.420;2023-07-13T00:32:16;101433.66;;;16.51;74.58
75418;BME280;63997;52.112;5.420;2023-07-13T00:34:42;101437.81;;;16.48;74.46
75418;BME280;63997;52.112;5.420;2023-07-13T00:37:09;101430.47;;;16.45;74.53
75418;BME280;63997;52.112;5.420;2023-07-13T00:39:37;101437.28;;;16.43;74.68
75418;BME280;63997;52.112;5.420;2023-07-13T00:42:05;101427.25;;;16.39;74.76
75418;BME280;63997;52.112;5.420;2023-07-13T00:44:32;101428.03;;;16.40;74.75
75418;BME280;63997;52.112;5.420;2023-07-13T00:46:59;101432.94;;;16.38;75.16
75418;BME280;63997;52.112;5.420;2023-07-13T00:49:27;101432.50;;;16.36;75.01
75418;BME280;63997;52.112;5.420;2023-07-13T00:52:02;101443.13;;;16.32;75.05
75418;BME280;63997;52.112;5.420;2023-07-13T00:54:33;101437.69;;;16.29;75.00
75418;BME280;63997;52.112;5.420;2023-07-13T00:57:04;101438.38;;;16.26;75.10
75418;BME280;63997;52.112;5.420;2023-07-13T00:59:34;101433.34;;;16.24;75.24
75418;BME280;63997;52.112;5.420;2023-07-13T01:02:01;101431.34;;;16.21;75.49
75418;BME280;63997;52.112;5.420;2023-07-13T01:04:29;101431.25;;;16.18;75.48
75418;BME280;63997;52.112;5.420;2023-07-13T01:06:57;101432.72;;;16.15;75.71
75418;BME280;63997;52.112;5.420;2023-07-13T01:09:26;101425.69;;;16.10;75.89
75418;BME280;63997;52.112;5.420;2023-07-13T01:11:52;101422.47;;;16.05;75.91
75418;BME280;63997;52.112;5.420;2023-07-13T01:14:19;101432.34;;;16.01;76.34
75418;BME280;63997;52.112;5.420;2023-07-13T01:16:47;101438.38;;;15.98;76.16
75418;BME280;63997;52.112;5.420;2023-07-13T01:19:35;101438.59;;;15.93;76.27
75418;BME280;63997;52.112;5.420;2023-07-13T01:22:14;101443.53;;;15.91;76.37
75418;BME280;63997;52.112;5.420;2023-07-13T01:24:43;101443.44;;;15.87;76.63
75418;BME280;63997;52.112;5.420;2023-07-13T01:27:14;101442.56;;;15.83;77.07
75418;BME280;63997;52.112;5.420;2023-07-13T01:29:43;101440.19;;;15.81;77.02
75418;BME280;63997;52.112;5.420;2023-07-13T01:32:17;101442.34;;;15.76;77.27
75418;BME280;63997;52.112;5.420;2023-07-13T01:34:52;101442.25;;;15.72;77.09
75418;BME280;63997;52.112;5.420;2023-07-13T01:37:24;101446.38;;;15.70;77.66
75418;BME280;63997;52.112;5.420;2023-07-13T01:39:51;101449.75;;;15.67;77.29
75418;BME280;63997;52.112;5.420;2023-07-13T01:42:18;101448.50;;;15.64;77.63
75418;BME280;63997;52.112;5.420;2023-07-13T01:44:44;101451.84;;;15.61;77.58
75418;BME280;63997;52.112;5.420;2023-07-13T01:47:11;101439.09;;;15.58;77.63
75418;BME280;63997;52.112;5.420;2023-07-13T01:49:37;101442.13;;;15.56;77.93
75418;BME280;63997;52.112;5.420;2023-07-13T01:52:04;101445.47;;;15.53;78.27
75418;BME280;63997;52.112;5.420;2023-07-13T01:54:31;101446.16;;;15.50;78.46
75418;BME280;63997;52.112;5.420;2023-07-13T01:56:57;101451.53;;;15.50;78.50
75418;BME280;63997;52.112;5.420;2023-07-13T01:59:24;101452.19;;;15.47;78.56
75418;BME280;63997;52.112;5.420;2023-07-13T02:01:50;101445.28;;;15.46;78.27
75418;BME280;63997;52.112;5.420;2023-07-13T02:04:17;101440.59;;;15.43;78.51
75418;BME280;63997;52.112;5.420;2023-07-13T02:06:43;101447.84;;;15.43;78.40
75418;BME280;63997;52.112;5.420;2023-07-13T02:09:10;101442.72;;;15.38;78.78
75418;BME280;63997;52.112;5.420;2023-07-13T02:11:36;101452.19;;;15.35;78.93
75418;BME280;63997;52.112;5.420;2023-07-13T02:14:03;101455.56;;;15.32;79.14
75418;BME280;63997;52.112;5.420;2023-07-13T02:16:30;101457.34;;;15.28;79.08
75418;BME280;63997;52.112;5.420;2023-07-13T02:18:57;101463.84;;;15.27;79.08
75418;BME280;63997;52.112;5.420;2023-07-13T02:21:24;101449.53;;;15.23;79.60
75418;BME280;63997;52.112;5.420;2023-07-13T02:23:50;101456.00;;;15.22;79.65
75418;BME280;63997;52.112;5.420;2023-07-13T02:26:16;101453.22;;;15.18;79.80
75418;BME280;63997;52.112;5.420;2023-07-13T02:28:43;101456.56;;;15.15;79.89
75418;BME280;63997;52.112;5.420;2023-07-13T02:31:12;101456.13;;;15.13;79.62
75418;BME280;63997;52.112;5.420;2023-07-13T02:33:39;101456.78;;;15.10;80.16
75418;BME280;63997;52.112;5.420;2023-07-13T02:36:06;101457.88;;;15.09;80.29
75418;BME280;63997;52.112;5.420;2023-07-13T02:38:33;101460.13;;;15.07;80.28
75418;BME280;63997;52.112;5.420;2023-07-13T02:41:00;101462.69;;;15.03;80.34
75418;BME280;63997;52.112;5.420;2023-07-13T02:43:27;101470.28;;;15.01;80.62
75418;BME280;63997;52.112;5.420;2023-07-13T02:45:54;101460.69;;;15.00;80.86
75418;BME280;63997;52.112;5.420;2023-07-13T02:48:20;101466.38;;;14.99;80.92
75418;BME280;63997;52.112;5.420;2023-07-13T02:50:47;101459.13;;;14.99;80.79
75418;BME280;63997;52.112;5.420;2023-07-13T02:53:13;101456.44;;;14.99;80.99
75418;BME280;63997;52.112;5.420;2023-07-13T02:55:40;101454.91;;;14.98;81.14
75418;BME280;63997;52.112;5.420;2023-07-13T02:58:07;101461.34;;;14.97;81.14
75418;BME280;63997;52.112;5.420;2023-07-13T03:00:33;101459.78;;;14.96;81.50
75418;BME280;63997;52.112;5.420;2023-07-13T03:03:00;101462.03;;;14.94;81.40
75418;BME280;63997;52.112;5.420;2023-07-13T03:05:27;101458.88;;;14.92;81.11
75418;BME280;63997;52.112;5.420;2023-07-13T03:07:53;101462.69;;;14.91;81.44
75418;BME280;63997;52.112;5.420;2023-07-13T03:10:20;101469.50;;;14.89;81.60
75418;BME280;63997;52.112;5.420;2023-07-13T03:12:46;101475.19;;;14.87;81.32
75418;BME280;63997;52.112;5.420;2023-07-13T03:15:13;101475.97;;;14.88;81.54
75418;BME280;63997;52.112;5.420;2023-07-13T03:17:39;101476.28;;;14.86;82.16
75418;BME280;63997;52.112;5.420;2023-07-13T03:20:07;101467.47;;;14.86;82.18
75418;BME280;63997;52.112;5.420;2023-07-13T03:22:33;101469.69;;;14.84;82.14
75418;BME280;63997;52.112;5.420;2023-07-13T03:25:00;101470.47;;;14.84;82.76
75418;BME280;63997;52.112;5.420;2023-07-13T03:27:26;101476.97;;;14.83;82.72
75418;BME280;63997;52.112;5.420;2023-07-13T03:29:59;101481.84;;;14.81;82.37
75418;BME280;63997;52.112;5.420;2023-07-13T03:32:26;101482.31;;;14.83;83.14
75418;BME280;63997;52.112;5.420;2023-07-13T03:34:52;101480.75;;;14.82;82.67
75418;BME280;63997;52.112;5.420;2023-07-13T03:37:19;101489.56;;;14.82;83.23
75418;BME280;63997;52.112;5.420;2023-07-13T03:39:46;101489.88;;;14.81;83.26
75418;BME280;63997;52.112;5.420;2023-07-13T03:42:13;101486.41;;;14.80;83.33
75418;BME280;63997;52.112;5.420;2023-07-13T03:44:40;101499.03;;;14.80;83.84
75418;BME280;63997;52.112;5.420;2023-07-13T03:47:07;101492.56;;;14.81;83.96
75418;BME280;63997;52.112;5.420;2023-07-13T03:49:35;101487.19;;;14.81;83.90
75418;BME280;63997;52.112;5.420;2023-07-13T03:52:01;101496.03;;;14.81;83.91
75418;BME280;63997;52.112;5.420;2023-07-13T03:54:28;101493.38;;;14.81;83.86
75418;BME280;63997;52.112;5.420;2023-07-13T03:56:54;101504.84;;;14.82;84.30
75418;BME280;63997;52.112;5.420;2023-07-13T03:59:21;101504.06;;;14.81;84.12
75418;BME280;63997;52.112;5.420;2023-07-13T04:01:48;101505.63;;;14.82;83.98
75418;BME280;63997;52.112;5.420;2023-07-13T04:04:14;101509.09;;;14.83;84.12
75418;BME280;63997;52.112;5.420;2023-07-13T04:06:42;101512.53;;;14.84;84.26
75418;BME280;63997;52.112;5.420;2023-07-13T04:09:08;101505.28;;;14.84;84.28
75418;BME280;63997;52.112;5.420;2023-07-13T04:11:35;101516.00;;;14.84;84.07
75418;BME280;63997;52.112;5.420;2023-07-13T04:14:04;101512.22;;;14.85;84.38
75418;BME280;63997;52.112;5.420;2023-07-13T04:16:31;101519.13;;;14.86;84.43
75418;BME280;63997;52.112;5.420;2023-07-13T04:18:57;101523.41;;;14.87;84.51
75418;BME280;63997;52.112;5.420;2023-07-13T04:21:29;101516.91;;;14.88;84.52
75418;BME280;63997;52.112;5.420;2023-07-13T04:23:56;101524.63;;;14.90;84.64
75418;BME280;63997;52.112;5.420;2023-07-13T04:26:23;101525.41;;;14.90;84.47
75418;BME280;63997;52.112;5.420;2023-07-13T04:28:51;101521.16;;;14.89;84.93
75418;BME280;63997;52.112;5.420;2023-07-13T04:31:18;101526.94;;;14.91;84.80
75418;BME280;63997;52.112;5.420;2023-07-13T04:33:44;101530.53;;;14.95;85.13
75418;BME280;63997;52.112;5.420;2023-07-13T04:36:15;101524.19;;;15.00;84.96
75418;BME280;63997;52.112;5.420;2023-07-13T04:38:41;101530.78;;;15.02;85.17
75418;BME280;63997;52.112;5.420;2023-07-13T04:41:08;101529.91;;;15.11;84.94
75418;BME280;63997;52.112;5.420;2023-07-13T04:43:35;101526.25;;;15.15;84.88
75418;BME280;63997;52.112;5.420;2023-07-13T04:46:10;101530.56;;;15.20;85.28
75418;BME280;63997;52.112;5.420;2023-07-13T04:48:38;101526.91;;;15.24;85.00
75418;BME280;63997;52.112;5.420;2023-07-13T04:51:04;101529.38;;;15.29;85.05
75418;BME280;63997;52.112;5.420;2023-07-13T04:53:31;101536.84;;;15.36;85.02
75418;BME280;63997;52.112;5.420;2023-07-13T04:55:58;101531.63;;;15.40;85.15
75418;BME280;63997;52.112;5.420;2023-07-13T04:58:25;101525.25;;;15.44;85.17
75418;BME280;63997;52.112;5.420;2023-07-13T05:00:52;101520.34;;;15.46;84.96
75418;BME280;63997;52.112;5.420;2023-07-13T05:03:18;101528.16;;;15.51;84.97
75418;BME280;63997;52.112;5.420;2023-07-13T05:05:58;101522.91;;;15.55;85.00
75418;BME280;63997;52.112;5.420;2023-07-13T05:08:25;101533.06;;;15.61;84.68
75418;BME280;63997;52.112;5.420;2023-07-13T05:10:52;101537.78;;;15.65;84.85
75418;BME280;63997;52.112;5.420;2023-07-13T05:13:19;101538.78;;;15.72;85.00
75418;BME280;63997;52.112;5.420;2023-07-13T05:15:48;101532.09;;;15.78;84.95
75418;BME280;63997;52.112;5.420;2023-07-13T05:18:21;101534.97;;;15.85;85.08
75418;BME280;63997;52.112;5.420;2023-07-13T05:20:56;101541.66;;;15.92;85.07
75418;BME280;63997;52.112;5.420;2023-07-13T05:23:23;101536.84;;;15.97;84.47
75418;BME280;63997;52.112;5.420;2023-07-13T05:25:49;101542.00;;;16.02;84.39
75418;BME280;63997;52.112;5.420;2023-07-13T05:28:16;101544.88;;;16.09;84.46
75418;BME280;63997;52.112;5.420;2023-07-13T05:30:47;101550.78;;;16.15;84.66
75418;BME280;63997;52.112;5.420;2023-07-13T05:33:14;101547.22;;;16.23;84.70
75418;BME280;63997;52.112;5.420;2023-07-13T05:35:40;101551.88;;;16.26;84.57
75418;BME280;63997;52.112;5.420;2023-07-13T05:38:07;101553.19;;;16.32;84.71
75418;BME280;63997;52.112;5.420;2023-07-13T05:40:33;101553.31;;;16.36;84.66
75418;BME280;63997;52.112;5.420;2023-07-13T05:43:00;101566.84;;;16.39;84.86
75418;BME280;63997;52.112;5.420;2023-07-13T05:45:26;101559.56;;;16.40;84.51
75418;BME280;63997;52.112;5.420;2023-07-13T05:47:53;101573.19;;;16.47;84.32
75418;BME280;63997;52.112;5.420;2023-07-13T05:50:19;101567.03;;;16.47;84.59
75418;BME280;63997;52.112;5.420;2023-07-13T05:52:46;101568.72;;;16.51;84.53
75418;BME280;63997;52.112;5.420;2023-07-13T05:55:14;101563.41;;;16.55;84.67
75418;BME280;63997;52.112;5.420;2023-07-13T05:57:41;101574.56;;;16.69;84.32
75418;BME280;63997;52.112;5.420;2023-07-13T06:00:09;101580.72;;;16.70;84.30
75418;BME280;63997;52.112;5.420;2023-07-13T06:02:35;101575.56;;;16.77;84.42
75418;BME280;63997;52.112;5.420;2023-07-13T06:05:02;101592.25;;;16.98;84.25
75418;BME280;63997;52.112;5.420;2023-07-13T06:07:28;101584.63;;;17.00;84.14
75418;BME280;63997;52.112;5.420;2023-07-13T06:09:55;101584.38;;;17.05;83.57
75418;BME280;63997;52.112;5.420;2023-07-13T06:12:22;101586.22;;;17.17;83.22
75418;BME280;63997;52.112;5.420;2023-07-13T06:14:49;101588.22;;;17.20;83.00
75418;BME280;63997;52.112;5.420;2023-07-13T06:17:15;101593.00;;;17.27;82.84
75418;BME280;63997;52.112;5.420;2023-07-13T06:19:42;101584.31;;;17.33;83.63
75418;BME280;63997;52.112;5.420;2023-07-13T06:22:08;101596.38;;;17.71;82.33
75418;BME280;63997;52.112;5.420;2023-07-13T06:24:35;101603.50;;;17.63;81.79
75418;BME280;63997;52.112;5.420;2023-07-13T06:27:01;101609.19;;;18.09;81.75
75418;BME280;63997;52.112;5.420;2023-07-13T06:29:28;101614.59;;;18.09;80.09
75418;BME280;63997;52.112;5.420;2023-07-13T06:31:54;101621.13;;;18.28;80.08
75418;BME280;63997;52.112;5.420;2023-07-13T06:34:21;101613.34;;;18.61;78.32
75418;BME280;63997;52.112;5.420;2023-07-13T06:36:47;101616.34;;;18.37;78.42
75418;BME280;63997;52.112;5.420;2023-07-13T06:39:14;101618.56;;;18.15;79.17
75418;BME280;63997;52.112;5.420;2023-07-13T06:41:40;101619.19;;;18.09;79.70
75418;BME280;63997;52.112;5.420;2023-07-13T06:44:07;101616.00;;;18.22;80.19
75418;BME280;63997;52.112;5.420;2023-07-13T06:46:33;101609.94;;;18.26;80.14
75418;BME280;63997;52.112;5.420;2023-07-13T06:49:00;101615.97;;;18.19;79.33
75418;BME280;63997;52.112;5.420;2023-07-13T06:51:26;101620.84;;;18.13;79.81
75418;BME280;63997;52.112;5.420;2023-07-13T06:53:53;101617.28;;;18.29;79.59
75418;BME280;63997;52.112;5.420;2023-07-13T06:56:20;101618.56;;;18.35;78.93
75418;BME280;63997;52.112;5.420;2023-07-13T06:58:47;101615.47;;;18.33;78.93
75418;BME280;63997;52.112;5.420;2023-07-13T07:01:13;101617.34;;;18.48;79.09
75418;BME280;63997;52.112;5.420;2023-07-13T07:03:41;101621.53;;;19.03;76.48
75418;BME280;63997;52.112;5.420;2023-07-13T07:06:16;101623.41;;;18.80;77.53
75418;BME280;63997;52.112;5.420;2023-07-13T07:08:43;101634.38;;;18.71;77.56
75418;BME280;63997;52.112;5.420;2023-07-13T07:11:13;101636.47;;;18.62;78.29
75418;BME280;63997;52.112;5.420;2023-07-13T07:13:40;101638.47;;;18.85;78.01
75418;BME280;63997;52.112;5.420;2023-07-13T07:16:06;101641.72;;;19.13;77.13
75418;BME280;63997;52.112;5.420;2023-07-13T07:18:33;101637.81;;;19.53;75.77
75418;BME280;63997;52.112;5.420;2023-07-13T07:20:59;101646.19;;;19.25;75.79
75418;BME280;63997;52.112;5.420;2023-07-13T07:23:26;101648.13;;;19.05;76.33
75418;BME280;63997;52.112;5.420;2023-07-13T07:25:52;101653.72;;;18.96;76.73
75418;BME280;63997;52.112;5.420;2023-07-13T07:28:20;101654.38;;;18.90;77.48
75418;BME280;63997;52.112;5.420;2023-07-13T07:30:53;101658.06;;;18.82;77.66
75418;BME280;63997;52.112;5.420;2023-07-13T07:33:39;101652.97;;;18.76;77.69
75418;BME280;63997;52.112;5.420;2023-07-13T07:36:06;101659.00;;;18.70;79.27
75418;BME280;63997;52.112;5.420;2023-07-13T07:38:36;101648.88;;;18.67;79.65
75418;BME280;63997;52.112;5.420;2023-07-13T07:41:04;101650.47;;;18.68;80.21
75418;BME280;63997;52.112;5.420;2023-07-13T07:43:33;101650.13;;;18.69;79.49
75418;BME280;63997;52.112;5.420;2023-07-13T07:46:00;101647.50;;;18.73;80.50
75418;BME280;63997;52.112;5.420;2023-07-13T07:48:33;101648.06;;;18.82;80.49
75418;BME280;63997;52.112;5.420;2023-07-13T07:50:59;101637.38;;;18.86;80.84
75418;BME280;63997;52.112;5.420;2023-07-13T07:53:26;101640.34;;;18.81;79.15
75418;BME280;63997;52.112;5.420;2023-07-13T07:55:52;101637.44;;;18.70;79.18
75418;BME280;63997;52.112;5.420;2023-07-13T07:58:22;101631.53;;;18.64;79.12
75418;BME280;63997;52.112;5.420;2023-07-13T08:00:51;101635.34;;;18.63;79.46
75418;BME280;63997;52.112;5.420;2023-07-13T08:03:21;101628.28;;;18.94;81.33
75418;BME280;63997;52.112;5.420;2023-07-13T08:05:53;101629.63;;;19.26;79.15
75418;BME280;63997;52.112;5.420;2023-07-13T08:08:22;101620.69;;;19.45;79.17
75418;BME280;63997;52.112;5.420;2023-07-13T08:10:49;101631.59;;;19.98;77.98
75418;BME280;63997;52.112;5.420;2023-07-13T08:13:15;101629.91;;;20.17;78.05
75418;BME280;63997;52.112;5.420;2023-07-13T08:15:42;101639.22;;;20.46;75.90
75418;BME280;63997;52.112;5.420;2023-07-13T08:18:09;101638.19;;;20.57;75.73
75418;BME280;63997;52.112;5.420;2023-07-13T08:20:39;101630.91;;;20.62;74.89
75418;BME280;63997;52.112;5.420;2023-07-13T08:23:06;101625.97;;;20.67;75.02
75418;BME280;63997;52.112;5.420;2023-07-13T08:25:34;101634.53;;;20.43;74.62
75418;BME280;63997;52.112;5.420;2023-07-13T08:28:02;101638.50;;;20.22;75.35
75418;BME280;63997;52.112;5.420;2023-07-13T08:30:29;101647.59;;;20.41;74.23
75418;BME280;63997;52.112;5.420;2023-07-13T08:32:55;101644.41;;;20.31;72.59
75418;BME280;63997;52.112;5.420;2023-07-13T08:35:22;101639.09;;;20.39;72.24
75418;BME280;63997;52.112;5.420;2023-07-13T08:37:48;101638.56;;;20.56;71.69
75418;BME280;63997;52.112;5.420;2023-07-13T08:40:25;101635.00;;;20.48;70.95
75418;BME280;63997;52.112;5.420;2023-07-13T08:42:57;101633.16;;;20.29;72.28
75418;BME280;63997;52.112;5.420;2023-07-13T08:45:40;101635.88;;;20.29;72.26
75418;BME280;63997;52.112;5.420;2023-07-13T08:48:37;101631.16;;;20.23;70.51
75418;BME280;63997;52.112;5.420;2023-07-13T08:51:21;101648.91;;;20.24;69.51
75418;BME280;63997;52.112;5.420;2023-07-13T08:53:54;101653.22;;;20.55;70.37
75418;BME280;63997;52.112;5.420;2023-07-13T08:56:25;101663.75;;;20.64;68.38
75418;BME280;63997;52.112;5.420;2023-07-13T08:58:58;101668.50;;;20.44;67.94
75418;BME280;63997;52.112;5.420;2023-07-13T09:04:27;101667.31;;;20.15;70.53
75418;BME280;63997;52.112;5.420;2023-07-13T09:15:32;101670.31;;;19.83;70.19
75418;BME280;63997;52.112;5.420;2023-07-13T09:18:37;101671.81;;;19.80;70.39
75418;BME280;63997;52.112;5.420;2023-07-13T09:21:17;101663.41;;;19.86;70.75
75418;BME280;63997;52.112;5.420;2023-07-13T09:23:45;101663.88;;;19.91;71.15
75418;BME280;63997;52.112;5.420;2023-07-13T09:26:20;101658.00;;;20.12;71.15
75418;BME280;63997;52.112;5.420;2023-07-13T09:28:55;101656.19;;;20.20;71.70
75418;BME280;63997;52.112;5.420;2023-07-13T09:31:33;101648.97;;;20.54;70.49
75418;BME280;63997;52.112;5.420;2023-07-13T09:34:00;101655.44;;;20.79;70.23
75418;BME280;63997;52.112;5.420;2023-07-13T09:36:32;101653.38;;;21.03;70.35
75418;BME280;63997;52.112;5.420;2023-07-13T09:44:12;101654.69;;;21.16;66.73
75418;BME280;63997;52.112;5.420;2023-07-13T09:46:47;101651.22;;;21.19;68.17
75418;BME280;63997;52.112;5.420;2023-07-13T09:49:18;101672.31;;;21.03;66.63
75418;BME280;63997;52.112;5.420;2023-07-13T09:51:45;101677.00;;;20.72;68.14
75418;BME280;63997;52.112;5.420;2023-07-13T09:54:23;101670.44;;;20.43;67.75
75418;BME280;63997;52.112;5.420;2023-07-13T09:56:58;101701.22;;;20.12;69.21
75418;BME280;63997;52.112;5.420;2023-07-13T09:59:35;101705.34;;;19.79;71.32
75418;BME280;63997;52.112;5.420;2023-07-13T10:05:03;101703.03;;;19.16;72.95
75418;BME280;63997;52.112;5.420;2023-07-13T10:07:32;101703.19;;;19.04;74.89
75418;BME280;63997;52.112;5.420;2023-07-13T10:10:00;101706.91;;;19.19;76.28
75418;BME280;63997;52.112;5.420;2023-07-13T10:12:30;101705.28;;;19.34;75.71
75418;BME280;63997;52.112;5.420;2023-07-13T10:15:01;101703.84;;;19.59;76.98
75418;BME280;63997;52.112;5.420;2023-07-13T10:17:50;101706.06;;;19.76;77.37
75418;BME280;63997;52.112;5.420;2023-07-13T10:20:18;101713.25;;;19.92;77.49
75418;BME280;63997;52.112;5.420;2023-07-13T10:23:05;101698.94;;;20.14;76.52
75418;BME280;63997;52.112;5.420;2023-07-13T10:25:39;101709.09;;;20.47;76.62
75418;BME280;63997;52.112;5.420;2023-07-13T10:30:50;101708.22;;;21.00;76.48
75418;BME280;63997;52.112;5.420;2023-07-13T10:33:21;101698.50;;;20.95;76.12
75418;BME280;63997;52.112;5.420;2023-07-13T10:35:51;101705.59;;;21.07;71.35
75418;BME280;63997;52.112;5.420;2023-07-13T10:38:24;101707.72;;;21.24;73.92
75418;BME280;63997;52.112;5.420;2023-07-13T10:40:56;101707.00;;;21.27;71.52
75418;BME280;63997;52.112;5.420;2023-07-13T10:43:27;101706.38;;;21.07;67.54
75418;BME280;63997;52.112;5.420;2023-07-13T10:45:58;101711.19;;;20.88;67.73
75418;BME280;63997;52.112;5.420;2023-07-13T10:48:26;101714.59;;;20.84;68.42
75418;BME280;63997;52.112;5.420;2023-07-13T10:50:53;101724.91;;;20.75;67.94
75418;BME280;63997;52.112;5.420;2023-07-13T10:53:28;101721.03;;;20.73;68.11
75418;BME280;63997;52.112;5.420;2023-07-13T10:58:36;101719.69;;;21.23;69.13
75418;BME280;63997;52.112;5.420;2023-07-13T11:03:46;101716.81;;;21.43;70.09
75418;BME280;63997;52.112;5.420;2023-07-13T11:18:49;101737.97;;;22.15;63.95
75418;BME280;63997;52.112;5.420;2023-07-13T11:21:20;101726.13;;;22.37;62.50
75418;BME280;63997;52.112;5.420;2023-07-13T11:24:12;101726.28;;;22.62;62.63
75418;BME280;63997;52.112;5.420;2023-07-13T11:26:51;101727.97;;;22.92;62.61
75418;BME280;63997;52.112;5.420;2023-07-13T11:31:56;101716.34;;;22.91;62.70
75418;BME280;63997;52.112;5.420;2023-07-13T11:34:38;101716.97;;;22.67;60.32
75418;BME280;63997;52.112;5.420;2023-07-13T11:37:11;101723.06;;;22.42;61.05
75418;BME280;63997;52.112;5.420;2023-07-13T11:39:43;101729.84;;;22.15;62.62
75418;BME280;63997;52.112;5.420;2023-07-13T11:42:16;101728.00;;;21.82;64.86
75418;BME280;63997;52.112;5.420;2023-07-13T11:44:45;101747.25;;;21.70;67.09
75418;BME280;63997;52.112;5.420;2023-07-13T11:47:32;101761.16;;;21.68;65.99
75418;BME280;63997;52.112;5.420;2023-07-13T11:49:59;101763.38;;;21.55;66.75
75418;BME280;63997;52.112;5.420;2023-07-13T11:52:32;101762.75;;;21.35;66.62
75418;BME280;63997;52.112;5.420;2023-07-13T11:55:02;101760.59;;;21.18;68.90
75418;BME280;63997;52.112;5.420;2023-07-13T11:57:40;101765.84;;;21.04;69.79
75418;BME280;63997;52.112;5.420;2023-07-13T12:00:23;101759.56;;;20.96;70.42
75418;BME280;63997;52.112;5.420;2023-07-13T12:02:55;101752.16;;;20.90;70.20
75418;BME280;63997;52.112;5.420;2023-07-13T12:05:22;101762.56;;;20.88;71.30
75418;BME280;63997;52.112;5.420;2023-07-13T12:07:49;101760.28;;;20.93;72.46
75418;BME280;63997;52.112;5.420;2023-07-13T12:10:22;101757.00;;;21.07;73.23
75418;BME280;63997;52.112;5.420;2023-07-13T12:12:54;101760.13;;;21.43;74.34
75418;BME280;63997;52.112;5.420;2023-07-13T12:15:27;101756.19;;;21.77;70.60
75418;BME280;63997;52.112;5.420;2023-07-13T12:17:56;101752.75;;;21.80;69.35
75418;BME280;63997;52.112;5.420;2023-07-13T12:20:28;101758.31;;;21.95;70.07
75418;BME280;63997;52.112;5.420;2023-07-13T12:22:56;101754.84;;;21.98;67.95
75418;BME280;63997;52.112;5.420;2023-07-13T12:25:28;101754.44;;;21.96;68.64
75418;BME280;63997;52.112;5.420;2023-07-13T12:27:56;101752.00;;;21.80;69.88
75418;BME280;63997;52.112;5.420;2023-07-13T12:30:32;101754.19;;;21.67;67.08
75418;BME280;63997;52.112;5.420;2023-07-13T12:33:07;101759.50;;;21.56;66.85
75418;BME280;63997;52.112;5.420;2023-07-13T12:35:44;101754.44;;;21.55;67.81
75418;BME280;63997;52.112;5.420;2023-07-13T12:38:12;101759.56;;;21.63;66.23
75418;BME280;63997;52.112;5.420;2023-07-13T12:40:39;101749.97;;;22.14;65.80
75418;BME280;63997;52.112;5.420;2023-07-13T12:43:13;101748.69;;;22.56;66.65
75418;BME280;63997;52.112;5.420;2023-07-13T12:45:55;101749.72;;;23.03;68.07
75418;BME280;63997;52.112;5.420;2023-07-13T12:48:22;101738.88;;;23.03;62.32
75418;BME280;63997;52.112;5.420;2023-07-13T12:51:10;101749.66;;;22.88;61.00
75418;BME280;63997;52.112;5.420;2023-07-13T12:53:43;101749.50;;;22.60;61.71
75418;BME280;63997;52.112;5.420;2023-07-13T12:56:19;101753.31;;;22.52;63.08
75418;BME280;63997;52.112;5.420;2023-07-13T12:58:47;101742.13;;;22.60;61.27
75418;BME280;63997;52.112;5.420;2023-07-13T13:01:22;101745.09;;;23.07;61.81
75418;BME280;63997;52.112;5.420;2023-07-13T13:03:51;101739.75;;;23.49;61.99
75418;BME280;63997;52.112;5.420;2023-07-13T13:08:48;101749.91;;;23.78;59.25
75418;BME280;63997;52.112;5.420;2023-07-13T13:11:15;101751.09;;;23.80;61.04
75418;BME280;63997;52.112;5.420;2023-07-13T13:13:43;101756.13;;;23.64;60.99
75418;BME280;63997;52.112;5.420;2023-07-13T13:16:23;101757.97;;;23.38;59.62
75418;BME280;63997;52.112;5.420;2023-07-13T13:18:53;101749.50;;;23.58;60.47
75418;BME280;63997;52.112;5.420;2023-07-13T13:21:20;101757.69;;;23.93;59.12
75418;BME280;63997;52.112;5.420;2023-07-13T13:23:47;101751.88;;;23.98;59.73
75418;BME280;63997;52.112;5.420;2023-07-13T13:26:15;101744.44;;;24.24;56.46
75418;BME280;63997;52.112;5.420;2023-07-13T13:28:45;101753.38;;;24.49;56.54
75418;BME280;63997;52.112;5.420;2023-07-13T13:31:12;101752.19;;;24.61;56.36
75418;BME280;63997;52.112;5.420;2023-07-13T13:33:41;101761.56;;;24.21;54.42
75418;BME280;63997;52.112;5.420;2023-07-13T13:36:16;101766.22;;;23.95;57.58
75418;BME280;63997;52.112;5.420;2023-07-13T13:38:43;101765.03;;;23.79;57.20
75418;BME280;63997;52.112;5.420;2023-07-13T13:41:12;101764.28;;;23.74;58.91
75418;BME280;63997;52.112;5.420;2023-07-13T13:43:40;101766.97;;;23.64;56.08
75418;BME280;63997;52.112;5.420;2023-07-13T13:46:24;101767.28;;;23.44;55.86
75418;BME280;63997;52.112;5.420;2023-07-13T13:48:51;101766.53;;;23.51;54.77